Time;durP1;ratioP1;P1;durP2;ratioP2;P2;SDS_P1;SDS_P2;PMS_P1;PMS_P2;Temp;Humidity;BMP_temperature;BMP_pressure;BME280_temperature;BME280_humidity;BME280_pressure;Samples;Min_cycle;Max_cycle;Signal;HPM_P1;HPM_P2
2023/08/30 04:01:51;;;;;;;5.03;4.63;;;14.80;89.70;;;;;;5360872;23;20535;-77
2023/08/30 04:04:18;;;;;;;4.63;4.23;;;14.70;89.20;;;;;;4917108;29;20471;-76
2023/08/30 04:06:44;;;;;;;4.40;4.00;;;14.20;90.80;;;;;;4917099;29;20548;-77
2023/08/30 04:09:11;;;;;;;5.50;5.10;;;13.90;92.40;;;;;;4917023;29;20500;-76
2023/08/30 04:11:38;;;;;;;5.20;4.80;;;14.00;93.30;;;;;;4916579;29;20836;-76
2023/08/30 04:14:04;;;;;;;4.77;4.37;;;14.20;92.10;;;;;;4917559;29;20481;-76
2023/08/30 04:16:31;;;;;;;4.57;4.20;;;14.20;91.50;;;;;;4916731;29;20876;-76
2023/08/30 04:18:59;;;;;;;4.83;4.40;;;14.20;91.70;;;;;;4916929;29;20456;-76
2023/08/30 04:21:26;;;;;;;5.57;5.10;;;14.20;91.90;;;;;;4919440;29;20472;-77
2023/08/30 04:23:53;;;;;;;4.60;4.20;;;14.30;91.40;;;;;;4920903;29;20638;-76
2023/08/30 04:26:19;;;;;;;5.57;5.17;;;14.40;91.30;;;;;;4920825;29;20463;-76
2023/08/30 04:28:46;;;;;;;5.03;4.60;;;14.50;90.70;;;;;;4921740;29;20468;-77
2023/08/30 04:31:13;;;;;;;4.40;3.83;;;14.50;91.10;;;;;;4920685;29;20658;-77
2023/08/30 04:33:39;;;;;;;4.60;4.20;;;14.60;90.40;;;;;;4920529;29;20492;-77
2023/08/30 04:36:08;;;;;;;4.13;3.83;;;14.80;90.00;;;;;;4920612;29;20448;-77
2023/08/30 04:38:34;;;;;;;4.27;3.97;;;14.90;89.70;;;;;;4920533;29;20453;-76
2023/08/30 04:41:02;;;;;;;4.97;4.57;;;14.80;89.10;;;;;;4920442;29;20480;-77
2023/08/30 04:43:29;;;;;;;4.53;4.13;;;14.70;89.60;;;;;;4920445;29;20818;-76
2023/08/30 04:45:56;;;;;;;4.13;3.83;;;14.70;89.30;;;;;;4920440;29;20456;-77
2023/08/30 04:48:24;;;;;;;4.77;4.37;;;14.60;89.70;;;;;;4920335;29;20451;-77
2023/08/30 04:50:58;;;;;;;4.20;3.80;;;14.70;89.80;;;;;;4920260;29;20544;-77
2023/08/30 04:53:26;;;;;;;5.40;5.00;;;14.70;89.60;;;;;;4920211;29;20472;-77
2023/08/30 04:55:53;;;;;;;4.63;4.10;;;14.60;89.60;;;;;;4920247;29;20850;-76
2023/08/30 04:58:19;;;;;;;4.37;3.97;;;14.70;89.80;;;;;;4920245;29;20453;-76
2023/08/30 05:00:46;;;;;;;4.70;4.30;;;14.70;89.70;;;;;;4920055;29;20479;-76
2023/08/30 05:03:13;;;;;;;4.57;4.13;;;14.60;89.10;;;;;;4920138;29;20540;-77
2023/08/30 05:05:40;;;;;;;3.80;3.50;;;14.40;90.10;;;;;;4920084;29;20448;-76
2023/08/30 05:08:06;;;;;;;3.87;3.57;;;14.50;90.40;;;;;;4919701;29;20864;-77
2023/08/30 05:10:34;;;;;;;3.53;3.23;;;14.50;90.00;;;;;;4919917;29;20448;-77
2023/08/30 05:13:01;;;;;;;3.90;3.60;;;14.60;90.00;;;;;;4919877;29;20491;-76
2023/08/30 05:15:28;;;;;;;4.87;4.47;;;14.60;89.80;;;;;;4919889;29;20452;-77
2023/08/30 05:17:54;;;;;;;5.00;4.37;;;14.60;89.80;;;;;;4919846;29;20449;-77
2023/08/30 05:20:21;;;;;;;4.17;3.87;;;14.60;89.80;;;;;;4919851;29;20449;-76
2023/08/30 05:22:48;;;;;;;4.20;3.90;;;14.70;90.00;;;;;;4919702;29;20492;-76
2023/08/30 05:25:15;;;;;;;4.30;4.00;;;14.60;89.10;;;;;;4919634;29;20452;-76
2023/08/30 05:27:43;;;;;;;4.20;3.80;;;14.30;89.90;;;;;;4919606;29;20449;-76
2023/08/30 05:30:11;;;;;;;4.30;3.90;;;14.10;90.80;;;;;;4919633;29;20504;-77
2023/08/30 05:32:37;;;;;;;4.63;4.20;;;14.10;91.00;;;;;;4919102;29;20492;-77
2023/08/30 05:35:05;;;;;;;4.50;4.10;;;14.00;91.40;;;;;;4920063;29;20448;-77
2023/08/30 05:37:32;;;;;;;4.23;3.83;;;14.10;91.60;;;;;;4920029;29;20449;-77
2023/08/30 05:39:58;;;;;;;4.10;3.70;;;14.20;91.90;;;;;;4919511;29;20460;-76
2023/08/30 05:42:25;;;;;;;3.60;3.30;;;14.40;91.40;;;;;;4919301;29;20468;-76
2023/08/30 05:44:54;;;;;;;4.33;3.80;;;14.50;90.60;;;;;;4919373;29;20449;-77
2023/08/30 05:47:21;;;;;;;4.10;3.80;;;14.50;90.50;;;;;;4919332;29;20445;-77
2023/08/30 05:49:48;;;;;;;4.37;4.00;;;14.50;90.50;;;;;;4919299;29;20452;-77
2023/08/30 05:52:16;;;;;;;3.70;3.40;;;14.60;90.70;;;;;;4919149;29;20477;-77
2023/08/30 05:54:44;;;;;;;4.53;4.13;;;14.70;89.80;;;;;;4919264;29;20512;-77
2023/08/30 05:57:11;;;;;;;4.17;3.80;;;14.70;89.10;;;;;;4919398;29;20455;-78
2023/08/30 05:59:37;;;;;;;4.07;3.73;;;14.70;89.50;;;;;;4919400;29;20481;-77
2023/08/30 06:02:06;;;;;;;7.37;4.43;;;14.70;90.00;;;;;;4919968;29;20844;-77
2023/08/30 06:04:33;;;;;;;4.77;4.30;;;14.60;89.40;;;;;;4919167;29;20449;-77
2023/08/30 06:06:59;;;;;;;4.23;3.93;;;14.60;90.10;;;;;;4919072;29;20468;-77
2023/08/30 06:09:26;;;;;;;4.90;4.50;;;14.60;89.90;;;;;;4919132;29;20863;-78
2023/08/30 06:11:53;;;;;;;3.63;3.33;;;14.60;89.60;;;;;;4918967;29;20563;-77
2023/08/30 06:14:19;;;;;;;3.93;3.63;;;14.60;90.30;;;;;;4919115;29;20485;-77
2023/08/30 06:16:46;;;;;;;4.80;4.40;;;14.60;90.10;;;;;;4918954;29;20942;-77
2023/08/30 06:19:14;;;;;;;3.67;3.37;;;14.70;90.00;;;;;;4919038;29;20828;-77
2023/08/30 06:21:41;;;;;;;3.70;3.40;;;14.70;89.90;;;;;;4919036;29;20472;-76
2023/08/30 06:24:08;;;;;;;4.33;4.00;;;14.80;89.60;;;;;;4918847;29;20500;-77
2023/08/30 06:26:34;;;;;;;4.73;3.97;;;14.80;89.40;;;;;;4919634;29;20583;-78
2023/08/30 06:29:01;;;;;;;4.30;3.97;;;14.80;89.50;;;;;;4918722;29;20445;-76
2023/08/30 06:31:28;;;;;;;3.97;3.67;;;14.90;89.50;;;;;;4918169;29;20979;-76
2023/08/30 06:33:55;;;;;;;4.10;3.80;;;14.90;89.30;;;;;;4918378;29;20501;-77
2023/08/30 06:36:23;;;;;;;4.13;3.73;;;14.80;89.30;;;;;;4918446;29;20464;-77
2023/08/30 06:38:50;;;;;;;4.27;3.97;;;14.70;89.70;;;;;;4918418;29;20448;-76
2023/08/30 06:41:17;;;;;;;4.23;3.87;;;14.70;90.10;;;;;;4918266;29;20475;-76
2023/08/30 06:43:43;;;;;;;5.00;4.60;;;14.80;90.20;;;;;;4917943;29;20930;-76
2023/08/30 06:46:10;;;;;;;4.40;4.00;;;14.80;90.10;;;;;;4918218;29;20465;-77
2023/08/30 06:48:37;;;;;;;5.93;3.67;;;14.90;90.50;;;;;;4918169;29;20449;-77
2023/08/30 06:51:04;;;;;;;4.40;4.10;;;14.90;90.20;;;;;;4918047;29;20520;-77
2023/08/30 06:53:32;;;;;;;4.33;3.87;;;14.90;89.80;;;;;;4918071;29;20579;-77
2023/08/30 06:55:59;;;;;;;3.93;3.63;;;14.80;90.50;;;;;;4917996;29;20449;-77
2023/08/30 06:58:26;;;;;;;5.50;4.67;;;14.70;90.70;;;;;;4918029;29;20448;-77
2023/08/30 07:00:53;;;;;;;4.10;3.70;;;14.80;90.80;;;;;;4917773;29;20551;-77
2023/08/30 07:03:19;;;;;;;3.83;3.53;;;14.80;90.80;;;;;;4917934;29;20425;-76
2023/08/30 07:05:47;;;;;;;4.80;4.40;;;14.90;90.60;;;;;;4917852;29;20504;-76
2023/08/30 07:08:14;;;;;;;4.37;3.97;;;14.80;90.70;;;;;;4917858;29;20561;-77
2023/08/30 07:10:43;;;;;;;4.40;4.00;;;14.80;90.60;;;;;;4917463;29;20966;-77
2023/08/30 07:13:11;;;;;;;4.23;3.83;;;14.80;90.80;;;;;;4917687;29;20585;-77
2023/08/30 07:15:39;;;;;;;3.93;3.63;;;14.80;91.20;;;;;;4917722;29;20459;-77
2023/08/30 07:18:05;;;;;;;4.60;4.20;;;14.90;90.90;;;;;;4917340;29;20875;-76
2023/08/30 07:20:32;;;;;;;3.97;3.67;;;14.90;90.70;;;;;;4917555;29;20452;-76
2023/08/30 07:22:59;;;;;;;3.60;3.30;;;15.00;90.70;;;;;;4917862;29;20449;-76
2023/08/30 07:25:26;;;;;;;4.23;3.83;;;15.00;90.30;;;;;;4917738;29;20457;-77
2023/08/30 07:27:54;;;;;;;3.87;3.57;;;15.00;89.90;;;;;;4917669;29;20481;-77
2023/08/30 07:30:20;;;;;;;3.43;3.13;;;15.00;89.80;;;;;;4917561;29;20970;-76
2023/08/30 07:32:47;;;;;;;3.93;3.63;;;15.10;89.70;;;;;;4917782;29;20872;-77
2023/08/30 07:35:15;;;;;;;3.90;3.60;;;15.00;89.80;;;;;;4918484;29;20491;-77
2023/08/30 07:37:42;;;;;;;3.63;3.33;;;15.20;89.50;;;;;;4917973;29;20449;-77
2023/08/30 07:40:10;;;;;;;4.00;3.70;;;15.20;88.80;;;;;;4918352;29;20449;-77
2023/08/30 07:42:36;;;;;;;3.50;3.20;;;15.20;88.40;;;;;;4917184;29;20982;-77
2023/08/30 07:45:05;;;;;;;7.87;3.97;;;15.00;89.60;;;;;;4917141;29;20946;-76
2023/08/30 07:47:32;;;;;;;4.47;4.07;;;15.10;90.20;;;;;;4917339;29;20445;-75
2023/08/30 07:49:59;;;;;;;4.33;4.03;;;15.10;90.20;;;;;;4917457;29;20449;-76
2023/08/30 07:52:25;;;;;;;3.97;3.63;;;15.10;89.20;;;;;;4917285;29;20825;-75
2023/08/30 07:54:52;;;;;;;3.83;3.53;;;14.90;89.60;;;;;;4917068;29;20563;-75
2023/08/30 07:57:19;;;;;;;6.50;5.17;;;14.80;90.30;;;;;;4917201;29;20452;-76
2023/08/30 07:59:45;;;;;;;4.03;3.63;;;14.80;91.20;;;;;;4917168;29;20448;-75
2023/08/30 08:02:13;;;;;;;3.60;3.30;;;14.80;91.20;;;;;;4916814;29;20540;-75
2023/08/30 08:04:40;;;;;;;3.97;3.67;;;14.80;91.10;;;;;;4917120;29;20441;-76
2023/08/30 08:07:07;;;;;;;3.70;3.40;;;14.80;91.50;;;;;;4917075;29;20455;-76
2023/08/30 08:09:33;;;;;;;4.40;4.00;;;14.80;91.30;;;;;;4917074;29;20448;-75
2023/08/30 08:12:00;;;;;;;3.40;3.10;;;14.80;91.80;;;;;;4916956;29;20472;-76
2023/08/30 08:14:27;;;;;;;4.67;4.27;;;14.80;91.30;;;;;;4916668;29;20516;-76
2023/08/30 08:16:54;;;;;;;4.17;3.60;;;14.70;92.20;;;;;;4916968;29;20448;-76
2023/08/30 08:19:22;;;;;;;4.23;3.87;;;14.90;91.80;;;;;;4916978;29;20534;-76
2023/08/30 08:21:49;;;;;;;3.33;3.03;;;14.90;91.20;;;;;;4916911;29;20547;-76
2023/08/30 08:24:16;;;;;;;4.60;4.20;;;15.10;91.30;;;;;;4916654;29;20966;-76
2023/08/30 08:26:42;;;;;;;3.50;3.20;;;15.00;90.80;;;;;;4916663;29;20876;-76
2023/08/30 08:29:09;;;;;;;3.80;3.50;;;15.20;91.60;;;;;;4916840;29;20452;-75
2023/08/30 08:31:36;;;;;;;3.07;2.77;;;15.40;90.90;;;;;;4916764;29;20475;-75
2023/08/30 08:34:10;;;;;;;4.17;3.30;;;15.50;89.40;;;;;;4916695;29;20492;-76
2023/08/30 08:36:39;;;;;;;3.87;3.47;;;15.40;89.90;;;;;;4916792;29;20448;-76
2023/08/30 08:39:06;;;;;;;3.63;3.30;;;15.60;89.30;;;;;;4916697;29;20839;-76
2023/08/30 08:41:39;;;;;;;3.20;2.90;;;15.50;89.20;;;;;;4916655;29;20469;-75
2023/08/30 08:44:07;;;;;;;3.30;3.00;;;15.50;89.00;;;;;;4916749;29;20440;-75
2023/08/30 08:46:35;;;;;;;3.47;3.17;;;15.50;89.80;;;;;;4916747;29;20536;-76
2023/08/30 08:49:06;;;;;;;3.07;2.60;;;15.50;89.00;;;;;;4916627;29;20456;-76
2023/08/30 08:51:35;;;;;;;4.87;3.33;;;15.80;90.10;;;;;;4916645;29;20523;-76
2023/08/30 08:54:04;;;;;;;3.60;3.30;;;16.00;89.90;;;;;;4916248;29;21017;-75
2023/08/30 08:56:32;;;;;;;3.17;2.87;;;16.10;88.10;;;;;;4916588;29;20868;-75
2023/08/30 08:58:59;;;;;;;4.40;2.50;;;16.10;87.30;;;;;;4916546;29;20506;-75
2023/08/30 09:01:26;;;;;;;2.83;2.50;;;16.20;88.10;;;;;;4916229;29;20480;-75
2023/08/30 09:03:53;;;;;;;3.00;2.80;;;16.50;87.90;;;;;;4916566;29;20501;-76
2023/08/30 09:06:21;;;;;;;2.63;2.43;;;16.60;87.00;;;;;;4917461;29;20456;-76
2023/08/30 09:08:48;;;;;;;3.10;2.30;;;16.70;87.40;;;;;;4919909;29;20969;-75
2023/08/30 09:11:16;;;;;;;2.60;2.40;;;16.80;86.90;;;;;;4919888;29;20473;-76
2023/08/30 09:13:43;;;;;;;2.20;1.90;;;17.10;87.00;;;;;;4919593;29;21034;-75
2023/08/30 09:16:14;;;;;;;2.20;1.90;;;17.30;83.80;;;;;;4919544;29;20487;-75
2023/08/30 09:18:41;;;;;;;2.60;2.33;;;17.30;84.50;;;;;;4919935;29;20484;-75
2023/08/30 09:21:08;;;;;;;2.63;2.23;;;17.40;83.60;;;;;;4920725;29;20954;-73
2023/08/30 09:23:35;;;;;;;2.30;1.93;;;17.50;84.70;;;;;;4920015;29;20989;-76
2023/08/30 09:26:03;;;;;;;3.23;2.23;;;17.50;84.40;;;;;;4919984;29;20448;-76
2023/08/30 09:28:32;;;;;;;3.47;1.83;;;17.70;84.90;;;;;;4919516;29;20456;-76
2023/08/30 09:31:00;;;;;;;2.30;2.10;;;18.00;83.90;;;;;;4919417;29;21049;-75
2023/08/30 09:33:32;;;;;;;2.17;1.87;;;18.20;82.70;;;;;;4919654;29;20477;-76
2023/08/30 09:35:59;;;;;;;2.40;1.60;;;18.40;80.70;;;;;;4919760;29;20524;-76
2023/08/30 09:38:26;;;;;;;3.17;1.70;;;18.20;80.50;;;;;;4919695;29;20531;-76
2023/08/30 09:40:53;;;;;;;3.07;2.17;;;18.30;81.50;;;;;;4919475;29;20476;-75
2023/08/30 09:43:22;;;;;;;4.20;1.70;;;18.50;80.70;;;;;;4919552;29;20456;-75
2023/08/30 09:45:50;;;;;;;2.10;1.70;;;18.60;80.30;;;;;;4919716;29;20455;-75
2023/08/30 09:48:21;;;;;;;3.30;2.23;;;18.70;82.10;;;;;;4919525;29;20456;-74
2023/08/30 09:50:50;;;;;;;2.77;2.20;;;18.80;81.60;;;;;;4919614;29;20483;-75
2023/08/30 09:53:18;;;;;;;4.33;1.67;;;18.90;80.20;;;;;;4919548;29;20453;-75
2023/08/30 09:55:46;;;;;;;2.40;1.50;;;18.70;79.70;;;;;;4919221;29;20441;-76
2023/08/30 09:58:13;;;;;;;2.63;1.80;;;18.70;79.80;;;;;;4919009;29;20455;-76
2023/08/30 10:00:39;;;;;;;2.33;1.80;;;18.60;79.90;;;;;;4919276;29;20452;-76
2023/08/30 10:03:08;;;;;;;2.00;1.50;;;18.60;80.50;;;;;;4919453;29;20445;-75
2023/08/30 10:05:37;;;;;;;2.07;1.70;;;18.80;80.60;;;;;;4919272;29;20451;-76
2023/08/30 10:08:04;;;;;;;2.90;1.70;;;19.20;80.20;;;;;;4919304;29;20449;-75
2023/08/30 10:10:32;;;;;;;3.23;1.80;;;19.40;77.70;;;;;;4918691;29;20930;-77
2023/08/30 10:12:59;;;;;;;2.13;1.40;;;19.60;77.80;;;;;;4918964;29;20468;-74
2023/08/30 10:15:28;;;;;;;3.40;1.60;;;19.80;76.40;;;;;;4919453;29;20495;-76
2023/08/30 10:17:58;;;;;;;2.30;1.63;;;19.90;75.30;;;;;;4917467;29;20878;-76
2023/08/30 10:20:28;;;;;;;2.60;1.70;;;20.20;76.40;;;;;;4918898;29;20432;-79
2023/08/30 10:22:57;;;;;;;2.80;1.60;;;20.30;75.40;;;;;;4918877;29;20536;-76
2023/08/30 10:25:27;;;;;;;2.07;1.50;;;20.30;73.00;;;;;;4918774;29;20444;-77
2023/08/30 10:27:56;;;;;;;2.17;1.27;;;20.50;73.00;;;;;;4919055;29;20819;-77
2023/08/30 10:30:24;;;;;;;2.40;1.50;;;20.80;73.40;;;;;;4918172;29;20799;-78
2023/08/30 10:32:50;;;;;;;2.10;1.57;;;21.00;71.60;;;;;;4918554;29;20500;-77
2023/08/30 10:35:19;;;;;;;2.30;1.40;;;20.70;71.10;;;;;;4918424;29;20511;-77
2023/08/30 10:37:56;;;;;;;2.10;1.40;;;20.70;70.50;;;;;;4918460;29;20453;-75
2023/08/30 10:40:23;;;;;;;2.30;1.60;;;20.70;71.70;;;;;;4918411;29;20425;-78
2023/08/30 10:43:00;;;;;;;2.63;1.47;;;20.80;73.00;;;;;;4918435;29;20452;-78
2023/08/30 10:45:27;;;;;;;2.67;1.80;;;21.20;72.10;;;;;;4918944;29;20491;-77
2023/08/30 10:47:56;;;;;;;2.20;1.40;;;20.90;68.50;;;;;;4918297;29;20449;-77
2023/08/30 10:50:29;;;;;;;1.90;1.20;;;20.50;69.90;;;;;;4918830;29;20452;-79
2023/08/30 10:52:58;;;;;;;1.90;1.30;;;20.40;71.80;;;;;;4918515;29;20460;-76
2023/08/30 10:55:24;;;;;;;3.97;2.07;;;20.50;72.50;;;;;;4918258;29;20872;-77
2023/08/30 10:58:00;;;;;;;1.90;1.20;;;20.40;72.60;;;;;;4917904;29;20982;-76
2023/08/30 11:00:29;;;;;;;1.80;1.10;;;20.50;69.50;;;;;;4917821;29;20439;-76
2023/08/30 11:02:56;;;;;;;1.80;1.13;;;20.40;70.80;;;;;;4918101;29;20437;-76
2023/08/30 11:05:24;;;;;;;2.53;1.30;;;20.40;71.90;;;;;;4918048;29;20448;-77
2023/08/30 11:07:51;;;;;;;1.80;1.50;;;20.30;71.60;;;;;;4918003;29;20519;-77
2023/08/30 11:10:20;;;;;;;3.80;1.47;;;20.20;70.00;;;;;;4917965;29;20513;-78
2023/08/30 11:12:49;;;;;;;3.63;1.40;;;20.50;72.10;;;;;;4917944;29;20523;-77
2023/08/30 11:15:15;;;;;;;1.67;0.97;;;20.80;71.00;;;;;;4918044;29;20499;-77
2023/08/30 11:17:43;;;;;;;2.00;1.10;;;21.30;68.20;;;;;;4918361;29;20500;-77
2023/08/30 11:20:11;;;;;;;2.30;1.20;;;21.60;70.10;;;;;;4918033;29;20452;-78
2023/08/30 11:22:41;;;;;;;2.53;1.20;;;21.50;66.30;;;;;;4917762;29;20473;-77
2023/08/30 11:25:10;;;;;;;2.00;1.50;;;21.40;68.80;;;;;;4917532;29;20445;-76
2023/08/30 11:27:38;;;;;;;2.17;1.43;;;21.60;67.60;;;;;;4917719;29;20475;-76
2023/08/30 11:30:06;;;;;;;2.60;1.40;;;21.80;65.70;;;;;;4917225;29;20449;-78
2023/08/30 11:32:34;;;;;;;2.60;1.27;;;21.70;66.20;;;;;;4917876;29;20511;-79
2023/08/30 11:35:01;;;;;;;2.17;1.83;;;21.40;68.00;;;;;;4918685;29;20937;-78
2023/08/30 11:37:28;;;;;;;2.13;1.60;;;21.30;67.70;;;;;;4917409;29;20947;-76
2023/08/30 11:39:56;;;;;;;2.03;1.30;;;21.30;66.60;;;;;;4917374;29;20484;-77
2023/08/30 11:42:23;;;;;;;1.97;1.20;;;21.30;67.60;;;;;;4916949;29;21021;-76
2023/08/30 11:44:52;;;;;;;1.90;1.20;;;21.10;68.60;;;;;;4917311;29;20456;-78
2023/08/30 11:47:20;;;;;;;3.20;1.63;;;21.20;68.40;;;;;;4917320;29;20586;-77
2023/08/30 11:49:48;;;;;;;2.57;1.30;;;21.10;68.60;;;;;;4917242;29;20882;-76
2023/08/30 11:52:15;;;;;;;2.37;1.33;;;21.00;69.20;;;;;;4917201;29;20472;-76
2023/08/30 11:54:42;;;;;;;1.93;1.20;;;20.80;69.30;;;;;;4916845;29;20912;-77
2023/08/30 11:57:09;;;;;;;1.80;1.00;;;20.50;69.70;;;;;;4917310;29;20471;-76
2023/08/30 11:59:36;;;;;;;1.90;1.20;;;20.00;69.50;;;;;;4916886;29;21002;-77
2023/08/30 12:02:05;;;;;;;1.80;1.10;;;19.60;71.00;;;;;;4916880;29;20480;-76
2023/08/30 12:04:32;;;;;;;2.40;1.00;;;19.40;72.10;;;;;;4916802;29;20891;-78
2023/08/30 12:06:59;;;;;;;4.67;1.77;;;19.20;72.90;;;;;;4917090;29;20473;-77
2023/08/30 12:09:31;;;;;;;1.60;0.90;;;18.90;75.30;;;;;;4917180;29;20448;-78
2023/08/30 12:12:06;;;;;;;1.70;0.97;;;18.70;77.00;;;;;;4916707;29;21005;-77
2023/08/30 12:14:36;;;;;;;2.37;1.13;;;18.50;77.80;;;;;;4917063;29;20571;-77
2023/08/30 12:17:04;;;;;;;1.87;1.23;;;18.40;77.80;;;;;;4916936;29;20440;-77
2023/08/30 12:19:32;;;;;;;2.00;1.13;;;18.40;78.30;;;;;;4916960;29;20825;-75
2023/08/30 12:22:05;;;;;;;2.20;1.27;;;18.40;78.60;;;;;;4916528;29;21062;-77
2023/08/30 12:24:42;;;;;;;1.90;1.10;;;18.40;79.20;;;;;;4917041;29;20429;-77
2023/08/30 12:27:09;;;;;;;1.93;1.30;;;18.40;79.10;;;;;;4917023;29;20437;-76
2023/08/30 12:29:35;;;;;;;2.43;1.10;;;18.60;78.90;;;;;;4917042;29;20445;-78
2023/08/30 12:32:04;;;;;;;2.20;1.27;;;18.60;78.90;;;;;;4918233;29;20472;-78
2023/08/30 12:34:31;;;;;;;2.20;1.33;;;18.70;79.60;;;;;;4917942;29;20493;-79
2023/08/30 12:36:57;;;;;;;2.20;1.30;;;18.70;79.20;;;;;;4922211;29;20448;-80
2023/08/30 12:39:24;;;;;;;2.10;1.27;;;18.70;79.10;;;;;;4920930;29;20939;-80
2023/08/30 12:41:51;;;;;;;2.40;1.80;;;18.80;79.50;;;;;;4921050;29;20527;-76
2023/08/30 12:44:18;;;;;;;2.00;1.50;;;18.80;78.90;;;;;;4929323;29;20539;-79
2023/08/30 12:46:44;;;;;;;3.40;1.27;;;18.80;79.40;;;;;;4932167;29;20452;-79
2023/08/30 12:49:13;;;;;;;3.10;1.70;;;18.90;80.00;;;;;;4932826;29;20455;-79
2023/08/30 12:51:39;;;;;;;1.80;1.07;;;19.00;78.50;;;;;;4933122;29;20482;-78
2023/08/30 12:54:06;;;;;;;2.00;1.37;;;19.10;78.80;;;;;;4923396;29;20508;-78
2023/08/30 12:56:33;;;;;;;2.00;1.40;;;19.10;79.60;;;;;;4924062;29;20489;-78
2023/08/30 12:59:00;;;;;;;2.03;1.27;;;19.20;78.10;;;;;;4923818;29;20449;-78
2023/08/30 13:01:26;;;;;;;2.03;1.47;;;19.00;77.70;;;;;;4923546;29;20488;-78
2023/08/30 13:03:53;;;;;;;1.80;1.20;;;19.00;79.60;;;;;;4922875;29;20971;-78
2023/08/30 13:06:21;;;;;;;1.80;1.20;;;19.10;78.40;;;;;;4921764;29;20460;-77
2023/08/30 13:08:48;;;;;;;1.77;1.23;;;18.90;78.60;;;;;;4921411;29;20461;-77
2023/08/30 13:11:15;;;;;;;2.73;1.20;;;19.10;77.60;;;;;;4920332;29;20990;-79
2023/08/30 13:13:41;;;;;;;1.90;1.40;;;19.30;77.30;;;;;;4922101;29;20834;-79
2023/08/30 13:16:08;;;;;;;1.80;1.10;;;19.30;77.00;;;;;;4924180;29;20827;-79
2023/08/30 13:18:35;;;;;;;1.90;1.00;;;19.20;78.30;;;;;;4924629;29;20456;-80
2023/08/30 13:21:01;;;;;;;3.60;1.10;;;19.20;78.40;;;;;;4922956;29;20492;-77
2023/08/30 13:23:29;;;;;;;1.60;0.90;;;19.40;78.30;;;;;;4922911;29;20444;-79
2023/08/30 13:25:56;;;;;;;2.30;1.50;;;19.30;77.40;;;;;;4924761;29;20456;-78
2023/08/30 13:28:23;;;;;;;1.80;1.20;;;19.30;77.70;;;;;;4924389;29;20448;-78
2023/08/30 13:30:51;;;;;;;2.20;1.30;;;18.90;76.00;;;;;;4924203;29;20906;-78
2023/08/30 13:33:17;;;;;;;2.00;1.47;;;18.90;78.10;;;;;;4923966;29;20528;-79
2023/08/30 13:35:49;;;;;;;2.30;1.47;;;19.00;80.30;;;;;;4921452;29;20480;-78
2023/08/30 13:38:16;;;;;;;2.00;1.20;;;19.50;79.20;;;;;;4921778;29;20528;-78
2023/08/30 13:40:44;;;;;;;2.10;1.37;;;19.70;76.90;;;;;;4921214;29;20472;-78
2023/08/30 13:43:11;;;;;;;2.20;1.70;;;20.00;77.50;;;;;;4920206;29;20441;-77
2023/08/30 13:45:37;;;;;;;2.27;1.30;;;20.00;77.40;;;;;;4919926;29;20445;-77
2023/08/30 13:48:05;;;;;;;1.90;1.20;;;20.20;76.40;;;;;;4919960;29;20456;-78
2023/08/30 13:50:32;;;;;;;1.90;1.30;;;20.50;75.50;;;;;;4922656;29;20449;-79
2023/08/30 13:52:59;;;;;;;2.20;1.03;;;20.70;75.00;;;;;;4922838;29;21038;-79
2023/08/30 13:55:26;;;;;;;1.60;0.90;;;20.90;70.40;;;;;;4922521;29;20944;-79
2023/08/30 13:57:54;;;;;;;1.90;1.20;;;21.10;69.40;;;;;;4922174;29;20453;-77
2023/08/30 14:00:21;;;;;;;1.80;1.10;;;21.30;71.40;;;;;;4921111;29;21085;-78
2023/08/30 14:02:48;;;;;;;1.80;1.13;;;21.50;71.20;;;;;;4919655;29;20955;-77
2023/08/30 14:05:15;;;;;;;1.80;1.00;;;21.60;70.80;;;;;;4919212;29;20512;-77
2023/08/30 14:07:41;;;;;;;1.77;1.10;;;21.50;70.20;;;;;;4919160;29;20969;-77
2023/08/30 14:10:08;;;;;;;1.77;1.10;;;21.40;69.70;;;;;;4919002;29;21014;-78
2023/08/30 14:12:35;;;;;;;1.70;1.00;;;21.40;69.30;;;;;;4921015;29;20499;-79
2023/08/30 14:15:04;;;;;;;3.03;1.17;;;21.30;70.30;;;;;;4922890;29;20905;-79
2023/08/30 14:17:30;;;;;;;1.70;1.10;;;21.50;71.30;;;;;;4923106;29;20485;-79
2023/08/30 14:19:57;;;;;;;2.07;1.13;;;21.70;71.50;;;;;;4920876;29;20451;-76
2023/08/30 14:22:24;;;;;;;1.70;1.10;;;21.80;69.90;;;;;;4920017;29;20472;-77
2023/08/30 14:24:50;;;;;;;1.70;1.03;;;21.90;69.70;;;;;;4919625;29;20459;-77
2023/08/30 14:27:17;;;;;;;2.17;1.30;;;22.00;67.20;;;;;;4919400;29;20453;-77
2023/08/30 14:29:44;;;;;;;2.30;1.00;;;22.00;67.30;;;;;;4918312;29;20456;-77
2023/08/30 14:32:12;;;;;;;1.80;1.03;;;22.10;68.20;;;;;;4918733;29;21078;-78
2023/08/30 14:34:39;;;;;;;1.80;1.07;;;22.10;66.90;;;;;;4918231;29;20824;-77
2023/08/30 14:37:06;;;;;;;2.10;1.30;;;22.10;66.60;;;;;;4918061;29;21061;-77
2023/08/30 14:39:33;;;;;;;1.80;1.10;;;22.20;66.70;;;;;;4918167;29;20448;-77
2023/08/30 14:41:59;;;;;;;1.90;1.20;;;22.20;67.20;;;;;;4918549;29;20884;-77
2023/08/30 14:44:27;;;;;;;1.70;1.07;;;22.20;67.90;;;;;;4918607;29;20453;-78
2023/08/30 14:46:54;;;;;;;2.77;1.20;;;22.20;68.30;;;;;;4918170;29;20445;-77
2023/08/30 14:49:22;;;;;;;1.80;1.10;;;22.10;68.50;;;;;;4918604;29;20436;-76
2023/08/30 14:51:49;;;;;;;1.70;0.97;;;22.10;67.00;;;;;;4918171;29;20472;-76
2023/08/30 14:54:16;;;;;;;1.97;1.10;;;22.00;67.60;;;;;;4918116;29;20457;-76
2023/08/30 14:56:42;;;;;;;2.00;1.20;;;22.00;68.00;;;;;;4918801;29;20572;-77
2023/08/30 14:59:10;;;;;;;2.23;1.10;;;21.90;69.70;;;;;;4918771;29;20441;-78
2023/08/30 15:01:36;;;;;;;2.00;1.13;;;21.90;69.50;;;;;;4919041;29;20900;-79
2023/08/30 15:04:03;;;;;;;2.77;1.13;;;21.90;70.10;;;;;;4918885;29;20449;-79
2023/08/30 15:06:31;;;;;;;1.60;0.90;;;21.80;67.00;;;;;;4918685;29;20504;-79
2023/08/30 15:08:58;;;;;;;2.40;1.37;;;21.80;65.90;;;;;;4918639;29;20480;-79
2023/08/30 15:11:26;;;;;;;2.00;1.00;;;21.60;66.90;;;;;;4918837;29;20476;-77
2023/08/30 15:13:52;;;;;;;1.80;1.13;;;21.20;68.80;;;;;;4917516;29;20453;-78
2023/08/30 15:16:19;;;;;;;1.70;1.00;;;21.20;70.40;;;;;;4918030;29;20547;-77
2023/08/30 15:18:46;;;;;;;1.70;1.00;;;21.40;68.20;;;;;;4918208;29;20445;-78
2023/08/30 15:21:12;;;;;;;1.67;1.00;;;21.50;66.30;;;;;;4918933;29;20504;-78
2023/08/30 15:23:40;;;;;;;1.90;1.00;;;21.80;65.90;;;;;;4917973;29;20452;-79
2023/08/30 15:26:07;;;;;;;1.73;1.10;;;22.10;67.10;;;;;;4918290;29;20445;-77
2023/08/30 15:28:34;;;;;;;2.00;1.20;;;22.00;65.70;;;;;;4917878;29;20804;-78
2023/08/30 15:31:00;;;;;;;1.90;1.10;;;22.10;66.40;;;;;;4918159;29;20464;-78
2023/08/30 15:33:27;;;;;;;1.97;1.03;;;22.00;67.80;;;;;;4918621;29;20452;-78
2023/08/30 15:35:58;;;;;;;1.80;1.20;;;21.70;65.60;;;;;;4920148;29;20863;-78
2023/08/30 15:38:24;;;;;;;1.70;0.93;;;21.70;66.60;;;;;;4920324;29;20440;-79
2023/08/30 15:40:54;;;;;;;2.63;1.13;;;21.70;64.60;;;;;;4918276;29;20477;-77
2023/08/30 15:43:22;;;;;;;1.77;0.90;;;21.70;65.00;;;;;;4920877;29;20479;-79
2023/08/30 15:45:48;;;;;;;2.53;1.30;;;21.60;64.20;;;;;;4920720;29;20544;-78
2023/08/30 15:48:16;;;;;;;2.23;1.27;;;21.70;64.90;;;;;;4917891;29;20951;-78
2023/08/30 15:50:43;;;;;;;1.60;0.90;;;21.70;65.30;;;;;;4918068;29;20511;-78
2023/08/30 15:53:10;;;;;;;1.80;1.10;;;21.80;65.30;;;;;;4917341;29;20475;-78
2023/08/30 15:55:36;;;;;;;1.80;1.20;;;21.90;65.50;;;;;;4917572;29;20575;-78
2023/08/30 15:58:04;;;;;;;1.70;1.00;;;21.90;65.50;;;;;;4917211;29;20444;-77
2023/08/30 16:00:35;;;;;;;2.03;1.17;;;21.90;64.40;;;;;;4916961;29;20456;-77
2023/08/30 16:03:02;;;;;;;2.00;1.23;;;21.90;64.80;;;;;;4916811;29;20990;-77
2023/08/30 16:05:28;;;;;;;1.80;1.03;;;21.80;65.90;;;;;;4916873;29;20935;-77
2023/08/30 16:07:55;;;;;;;1.80;1.00;;;21.70;66.60;;;;;;4917111;29;20481;-77
2023/08/30 16:10:22;;;;;;;1.70;1.00;;;21.60;67.30;;;;;;4917068;29;20504;-77
2023/08/30 16:12:48;;;;;;;1.90;1.20;;;21.60;68.00;;;;;;4917150;29;20453;-77
2023/08/30 16:15:16;;;;;;;1.70;1.10;;;21.40;68.60;;;;;;4918032;29;20985;-77
2023/08/30 16:17:43;;;;;;;1.87;1.20;;;21.40;68.30;;;;;;4921016;29;20536;-77
2023/08/30 16:20:11;;;;;;;1.83;1.30;;;21.00;68.90;;;;;;4920872;29;20476;-77
2023/08/30 16:22:38;;;;;;;1.90;1.40;;;20.90;69.70;;;;;;4920940;29;20550;-77
2023/08/30 16:25:06;;;;;;;2.00;1.53;;;20.80;70.70;;;;;;4920914;29;20461;-77
2023/08/30 16:27:32;;;;;;;1.90;1.20;;;20.80;71.00;;;;;;4920738;29;20893;-78
2023/08/30 16:30:00;;;;;;;3.60;1.50;;;20.60;71.50;;;;;;4920967;29;20471;-77
2023/08/30 16:32:28;;;;;;;2.10;1.50;;;20.60;71.70;;;;;;4920460;29;20468;-77
2023/08/30 16:34:54;;;;;;;2.00;1.10;;;20.50;72.20;;;;;;4920801;29;20448;-76
2023/08/30 16:37:21;;;;;;;1.80;1.20;;;20.60;71.80;;;;;;4920449;29;20879;-78
2023/08/30 16:39:48;;;;;;;2.00;1.10;;;20.50;72.00;;;;;;4920865;29;20452;-77
2023/08/30 16:42:14;;;;;;;1.87;1.10;;;20.50;72.50;;;;;;4921736;29;20480;-77
2023/08/30 16:44:42;;;;;;;1.80;1.10;;;20.50;72.00;;;;;;4921287;29;20448;-77
2023/08/30 16:47:08;;;;;;;1.90;1.30;;;20.30;72.50;;;;;;4920517;29;20451;-78
2023/08/30 16:49:36;;;;;;;2.73;1.33;;;20.50;72.80;;;;;;4920725;29;20500;-79